createdAt,value
2016-12-28T00:00:56.290Z,0
2016-12-28T00:02:04.987Z,0
2016-12-28T00:03:13.681Z,0
2016-12-28T00:04:22.375Z,0
2016-12-28T00:05:31.072Z,0
2016-12-28T00:06:40.083Z,0
2016-12-28T00:07:48.784Z,0
2016-12-28T00:08:57.477Z,0
2016-12-28T00:10:06.171Z,0
2016-12-28T00:11:14.870Z,0
2016-12-28T00:12:23.569Z,0
2016-12-28T00:13:32.264Z,0
2016-12-28T00:14:40.958Z,0
2016-12-28T00:15:49.680Z,0
2016-12-28T00:16:58.378Z,0
2016-12-28T00:18:07.078Z,0
2016-12-28T00:19:15.776Z,0
2016-12-28T00:20:24.467Z,0
2016-12-28T00:21:33.163Z,0
2016-12-28T00:22:41.864Z,0
2016-12-28T00:23:50.563Z,0
2016-12-28T00:24:59.261Z,0
2016-12-28T00:26:07.957Z,0
2016-12-28T00:27:16.656Z,0
2016-12-28T00:28:25.355Z,0
2016-12-28T00:29:34.055Z,0
2016-12-28T00:30:42.751Z,0
2016-12-28T00:31:51.445Z,0
2016-12-28T00:33:00.142Z,0
2016-12-28T00:34:08.856Z,0
2016-12-28T00:35:17.566Z,0
2016-12-28T00:36:26.260Z,0
2016-12-28T00:37:34.957Z,0
2016-12-28T00:38:43.972Z,0
2016-12-28T00:39:52.667Z,0
2016-12-28T00:41:01.367Z,0
2016-12-28T00:42:10.073Z,0
2016-12-28T00:43:18.766Z,0
2016-12-28T00:44:27.461Z,0
2016-12-28T00:45:36.189Z,0
2016-12-28T00:46:44.887Z,0
2016-12-28T00:47:53.579Z,0
2016-12-28T00:49:02.274Z,0
2016-12-28T00:50:10.972Z,0
2016-12-28T00:51:19.666Z,0
2016-12-28T00:52:28.361Z,0
2016-12-28T00:53:37.052Z,0
2016-12-28T00:54:45.750Z,0
2016-12-28T00:55:54.446Z,0
2016-12-28T00:57:03.458Z,0
2016-12-28T00:58:12.152Z,0
2016-12-28T00:59:20.843Z,0
2016-12-28T01:00:29.539Z,0
2016-12-28T01:01:38.235Z,0
2016-12-28T01:02:46.930Z,0
2016-12-28T01:03:55.625Z,0
2016-12-28T01:05:04.328Z,0
2016-12-28T01:06:13.023Z,0
2016-12-28T01:07:21.715Z,0
2016-12-28T01:08:30.412Z,0
2016-12-28T01:09:39.139Z,0
2016-12-28T01:10:47.864Z,0
2016-12-28T01:11:56.584Z,0
2016-12-28T01:13:05.285Z,0
2016-12-28T01:14:13.988Z,0
2016-12-28T01:15:22.682Z,0
2016-12-28T01:16:31.374Z,0
2016-12-28T01:17:40.075Z,0
2016-12-28T01:18:48.771Z,0
2016-12-28T01:19:57.789Z,0
2016-12-28T01:21:06.484Z,0
2016-12-28T01:22:15.185Z,0
2016-12-28T01:23:23.878Z,0
2016-12-28T01:24:32.574Z,0
2016-12-28T01:25:41.266Z,0
2016-12-28T01:26:49.956Z,0
2016-12-28T01:27:58.680Z,0
2016-12-28T01:29:07.377Z,0
2016-12-28T01:30:16.105Z,0
2016-12-28T01:31:24.805Z,0
2016-12-28T01:32:33.497Z,0
2016-12-28T01:33:42.189Z,0
2016-12-28T01:34:50.885Z,0
2016-12-28T01:35:59.577Z,0
2016-12-28T01:37:08.272Z,0
2016-12-28T01:38:16.965Z,0
2016-12-28T01:39:25.661Z,0
2016-12-28T01:40:34.383Z,0
2016-12-28T01:41:43.393Z,0
2016-12-28T01:42:52.091Z,0
2016-12-28T01:44:00.788Z,0
2016-12-28T01:45:09.506Z,0
2016-12-28T01:46:18.199Z,0
2016-12-28T01:47:26.900Z,0
2016-12-28T01:48:35.598Z,0
2016-12-28T01:49:44.297Z,0
2016-12-28T01:50:52.995Z,0
2016-12-28T01:52:01.695Z,0
2016-12-28T01:53:10.390Z,0
2016-12-28T01:54:19.086Z,0
2016-12-28T01:55:27.781Z,0
2016-12-28T01:56:36.478Z,0
2016-12-28T01:57:45.171Z,0
2016-12-28T01:58:53.868Z,0
2016-12-28T02:00:02.561Z,0
2016-12-28T02:01:11.254Z,0
2016-12-28T02:02:20.323Z,0
2016-12-28T02:03:29.017Z,0
2016-12-28T02:04:37.709Z,0
2016-12-28T02:05:46.399Z,0
2016-12-28T02:06:55.089Z,0
2016-12-28T02:08:03.785Z,0
2016-12-28T02:09:12.800Z,0
2016-12-28T02:10:21.497Z,0
2016-12-28T02:11:30.191Z,0
2016-12-28T02:12:38.899Z,0
2016-12-28T02:13:47.595Z,0
2016-12-28T02:14:56.288Z,0
2016-12-28T02:16:04.986Z,0
2016-12-28T02:17:13.676Z,0
2016-12-28T02:18:22.373Z,0
2016-12-28T02:19:31.072Z,0
2016-12-28T02:20:39.769Z,0
2016-12-28T02:21:48.464Z,0
2016-12-28T02:22:57.156Z,0
2016-12-28T02:24:05.848Z,0
2016-12-28T02:25:14.549Z,0
2016-12-28T02:26:23.243Z,0
2016-12-28T02:27:31.964Z,0
2016-12-28T02:28:40.661Z,0
2016-12-28T02:29:49.360Z,0
2016-12-28T02:30:58.056Z,0
2016-12-28T02:32:06.751Z,0
2016-12-28T02:33:15.445Z,0
2016-12-28T02:34:24.134Z,0
2016-12-28T02:35:32.837Z,0
2016-12-28T02:36:41.552Z,0
2016-12-28T02:37:50.251Z,0
2016-12-28T02:38:58.945Z,0
2016-12-28T02:40:07.650Z,0
2016-12-28T02:41:16.340Z,0
2016-12-28T02:42:25.078Z,0
2016-12-28T02:43:33.778Z,0
2016-12-28T02:44:42.474Z,0
2016-12-28T02:45:51.168Z,0
2016-12-28T02:46:59.865Z,0
2016-12-28T02:48:08.560Z,0
2016-12-28T02:49:17.257Z,0
2016-12-28T02:50:25.946Z,0
2016-12-28T02:51:34.644Z,0
2016-12-28T02:52:43.335Z,0
2016-12-28T02:53:52.055Z,0
2016-12-28T02:55:00.744Z,0
2016-12-28T02:56:09.439Z,0
2016-12-28T02:57:18.133Z,0
2016-12-28T02:58:26.831Z,0
2016-12-28T02:59:35.528Z,0
2016-12-28T03:00:44.224Z,0
2016-12-28T03:01:52.945Z,0
2016-12-28T03:03:01.954Z,0
2016-12-28T03:04:10.648Z,0
2016-12-28T03:05:19.351Z,0
2016-12-28T03:06:28.050Z,0
2016-12-28T03:07:36.743Z,0
2016-12-28T03:08:45.434Z,0
2016-12-28T03:09:54.131Z,0
2016-12-28T03:11:02.827Z,0
2016-12-28T03:12:11.523Z,0
2016-12-28T03:13:20.215Z,0
2016-12-28T03:14:28.907Z,0
2016-12-28T03:15:37.602Z,0
2016-12-28T03:16:46.300Z,0
2016-12-28T03:17:55.003Z,0
2016-12-28T03:19:03.693Z,0
2016-12-28T03:20:12.388Z,0
2016-12-28T03:21:21.080Z,0
2016-12-28T03:22:29.826Z,0
2016-12-28T03:23:38.520Z,0
2016-12-28T03:24:47.242Z,0
2016-12-28T03:25:55.953Z,0
2016-12-28T03:27:04.644Z,0
2016-12-28T03:28:13.348Z,0
2016-12-28T03:29:22.041Z,0
2016-12-28T03:30:30.733Z,0
2016-12-28T03:31:39.427Z,0
2016-12-28T03:32:48.121Z,0
2016-12-28T03:33:56.816Z,0
2016-12-28T03:35:05.512Z,0
2016-12-28T03:36:14.212Z,0
2016-12-28T03:37:22.902Z,0
2016-12-28T03:38:31.591Z,0
2016-12-28T03:39:40.288Z,0
2016-12-28T03:40:49.017Z,0
2016-12-28T03:41:57.735Z,0
2016-12-28T03:43:06.427Z,0
2016-12-28T03:44:15.124Z,0
2016-12-28T03:45:23.821Z,0
2016-12-28T03:46:32.511Z,0
2016-12-28T03:47:41.205Z,0
2016-12-28T03:48:49.901Z,0
2016-12-28T03:49:58.595Z,0
2016-12-28T03:51:07.288Z,0
2016-12-28T03:52:15.981Z,0
2016-12-28T03:53:24.680Z,0
2016-12-28T03:54:33.369Z,0
2016-12-28T03:55:42.067Z,0
2016-12-28T03:56:50.763Z,0
2016-12-28T03:57:59.457Z,0
2016-12-28T03:59:08.155Z,0
2016-12-28T04:00:16.848Z,0
2016-12-28T04:01:25.541Z,0
2016-12-28T04:02:34.235Z,0
2016-12-28T04:03:42.932Z,0
2016-12-28T04:04:51.627Z,0
2016-12-28T04:06:00.322Z,0
2016-12-28T04:07:09.025Z,0
2016-12-28T04:08:18.049Z,0
2016-12-28T04:09:26.742Z,0
2016-12-28T04:10:35.436Z,0
2016-12-28T04:11:44.132Z,0
2016-12-28T04:12:52.821Z,0
2016-12-28T04:14:01.513Z,0
2016-12-28T04:15:10.377Z,0
2016-12-28T04:16:19.073Z,0
2016-12-28T04:17:27.767Z,0
2016-12-28T04:18:36.459Z,0
2016-12-28T04:19:45.153Z,0
2016-12-28T04:20:53.844Z,0
2016-12-28T04:22:02.540Z,0
2016-12-28T04:23:11.232Z,0
2016-12-28T04:24:19.927Z,0
2016-12-28T04:25:28.620Z,0
2016-12-28T04:26:37.313Z,0
2016-12-28T04:27:46.010Z,0
2016-12-28T04:28:54.707Z,0
2016-12-28T04:30:03.399Z,0
2016-12-28T04:31:12.115Z,0
2016-12-28T04:32:20.808Z,0
2016-12-28T04:33:29.499Z,0
2016-12-28T04:34:38.196Z,0
2016-12-28T04:35:46.894Z,0
2016-12-28T04:36:55.587Z,0
2016-12-28T04:38:04.278Z,0
2016-12-28T04:39:12.986Z,0
2016-12-28T04:40:21.675Z,0
2016-12-28T04:41:30.394Z,0
2016-12-28T04:42:39.085Z,0
2016-12-28T04:43:47.838Z,0
2016-12-28T04:44:56.532Z,0
2016-12-28T04:46:05.223Z,0
2016-12-28T04:47:13.918Z,0
2016-12-28T04:48:22.613Z,0
2016-12-28T04:49:31.306Z,0
2016-12-28T04:50:40.001Z,0
2016-12-28T04:51:48.698Z,0
2016-12-28T04:52:57.392Z,0
2016-12-28T04:54:06.087Z,0
2016-12-28T04:55:14.782Z,0
2016-12-28T04:56:23.481Z,0
2016-12-28T04:57:32.175Z,0
2016-12-28T04:58:40.874Z,0
2016-12-28T04:59:49.571Z,0
2016-12-28T05:00:58.303Z,0
2016-12-28T05:02:07.000Z,0
2016-12-28T05:03:15.703Z,0
2016-12-28T05:04:24.395Z,0
2016-12-28T05:05:33.089Z,0
2016-12-28T05:06:41.842Z,0
2016-12-28T05:07:50.543Z,0
2016-12-28T05:08:59.241Z,0
2016-12-28T05:10:07.937Z,0
2016-12-28T05:11:16.628Z,0
2016-12-28T05:12:25.325Z,0
2016-12-28T05:13:34.017Z,0
2016-12-28T05:14:42.717Z,0
2016-12-28T05:15:51.412Z,0
2016-12-28T05:17:00.106Z,0
2016-12-28T05:18:08.800Z,0
2016-12-28T05:19:17.489Z,0
2016-12-28T05:20:26.190Z,0
2016-12-28T05:21:34.888Z,0
2016-12-28T05:22:43.639Z,0
2016-12-28T05:23:52.333Z,0
2016-12-28T05:25:01.040Z,0
2016-12-28T05:26:09.740Z,0
2016-12-28T05:27:18.441Z,0
2016-12-28T05:28:27.138Z,0
2016-12-28T05:29:35.834Z,0
2016-12-28T05:30:44.539Z,0
2016-12-28T05:31:53.236Z,0
2016-12-28T05:33:01.927Z,0
2016-12-28T05:34:10.622Z,0
2016-12-28T05:35:19.347Z,0
2016-12-28T05:36:28.040Z,0
2016-12-28T05:37:36.732Z,0
2016-12-28T05:38:45.428Z,0
2016-12-28T05:39:54.120Z,0
2016-12-28T05:41:03.127Z,0
2016-12-28T05:42:11.828Z,0
2016-12-28T05:43:20.522Z,0
2016-12-28T05:44:29.214Z,0
2016-12-28T05:45:37.909Z,0
2016-12-28T05:46:46.604Z,0
2016-12-28T05:47:55.294Z,0
2016-12-28T05:49:03.985Z,0
2016-12-28T05:50:12.685Z,0
2016-12-28T05:51:21.385Z,0
2016-12-28T05:52:30.080Z,0
2016-12-28T05:53:38.775Z,0
2016-12-28T05:54:47.471Z,0
2016-12-28T05:55:56.165Z,0
2016-12-28T05:57:04.868Z,0
2016-12-28T05:58:13.562Z,0
2016-12-28T05:59:22.258Z,0
2016-12-28T06:00:30.952Z,0
2016-12-28T06:01:39.652Z,0
2016-12-28T06:02:48.352Z,0
2016-12-28T06:03:57.399Z,0
2016-12-28T06:05:06.095Z,0
2016-12-28T06:06:14.787Z,0
2016-12-28T06:07:23.479Z,0
2016-12-28T06:08:32.207Z,0
2016-12-28T06:09:40.897Z,0
2016-12-28T06:10:49.593Z,0
2016-12-28T06:11:58.287Z,0
2016-12-28T06:13:07.007Z,0
2016-12-28T06:14:15.704Z,0
2016-12-28T06:15:24.400Z,0
2016-12-28T06:16:33.095Z,0
2016-12-28T06:17:41.790Z,0
2016-12-28T06:18:50.485Z,0
2016-12-28T06:19:59.176Z,0
2016-12-28T06:21:07.876Z,0
2016-12-28T06:22:16.578Z,0
2016-12-28T06:23:25.302Z,0
2016-12-28T06:24:34.022Z,0
2016-12-28T06:25:42.718Z,0
2016-12-28T06:26:51.410Z,0
2016-12-28T06:28:00.106Z,0
2016-12-28T06:29:08.800Z,0
2016-12-28T06:30:17.498Z,0
2016-12-28T06:31:26.215Z,0
2016-12-28T06:32:34.904Z,0
2016-12-28T06:33:43.595Z,0
2016-12-28T06:34:52.292Z,0
2016-12-28T06:36:00.984Z,0
2016-12-28T06:37:09.676Z,0
2016-12-28T06:38:18.369Z,0
2016-12-28T06:39:27.065Z,0
2016-12-28T06:40:35.766Z,0
2016-12-28T06:41:44.466Z,0
2016-12-28T06:42:53.160Z,0
2016-12-28T06:44:01.846Z,0
2016-12-28T06:45:10.551Z,0
2016-12-28T06:46:19.250Z,0
2016-12-28T06:47:27.945Z,0
2016-12-28T06:48:36.637Z,0
2016-12-28T06:49:45.334Z,0
2016-12-28T06:50:54.031Z,0
2016-12-28T06:52:02.755Z,0
2016-12-28T06:53:11.450Z,0
2016-12-28T06:54:20.462Z,0
2016-12-28T06:55:29.160Z,0
2016-12-28T06:56:37.850Z,0
2016-12-28T06:57:46.544Z,0
2016-12-28T06:58:55.271Z,0
2016-12-28T07:00:03.967Z,0
2016-12-28T07:01:12.665Z,0
2016-12-28T07:02:21.354Z,0
2016-12-28T07:03:30.050Z,0
2016-12-28T07:04:38.745Z,0
2016-12-28T07:05:47.443Z,0
2016-12-28T07:06:56.133Z,0
2016-12-28T07:08:04.829Z,0
2016-12-28T07:09:13.550Z,0
2016-12-28T07:10:22.242Z,0
2016-12-28T07:11:30.941Z,0
2016-12-28T07:12:39.637Z,0
2016-12-28T07:13:48.330Z,0
2016-12-28T07:14:57.020Z,0
2016-12-28T07:16:05.717Z,0
2016-12-28T07:17:14.408Z,0
2016-12-28T07:18:23.104Z,0
2016-12-28T07:19:31.798Z,0
2016-12-28T07:20:40.493Z,0
2016-12-28T07:21:49.187Z,0
2016-12-28T07:22:57.880Z,0
2016-12-28T07:24:06.578Z,0
2016-12-28T07:25:15.279Z,0
2016-12-28T07:26:23.971Z,0
2016-12-28T07:27:32.666Z,0
2016-12-28T07:28:41.357Z,0
2016-12-28T07:29:50.056Z,0
2016-12-28T07:30:58.751Z,0
2016-12-28T07:32:07.450Z,4
2016-12-28T07:33:16.144Z,4
2016-12-28T07:34:24.837Z,0
2016-12-28T07:35:33.530Z,0
2016-12-28T07:36:42.229Z,0
2016-12-28T07:37:50.923Z,4
2016-12-28T07:38:59.621Z,4
2016-12-28T07:40:08.325Z,0
2016-12-28T07:41:17.024Z,4
2016-12-28T07:42:25.743Z,4
2016-12-28T07:43:34.437Z,4
2016-12-28T07:44:43.141Z,4
2016-12-28T07:45:51.839Z,4
2016-12-28T07:47:00.535Z,8
2016-12-28T07:48:09.229Z,4
2016-12-28T07:49:17.919Z,8
2016-12-28T07:50:26.614Z,8
2016-12-28T07:51:35.308Z,8
2016-12-28T07:52:44.004Z,8
2016-12-28T07:53:52.694Z,12
2016-12-28T07:55:01.386Z,12
2016-12-28T07:56:10.087Z,16
2016-12-28T07:57:18.780Z,16
2016-12-28T07:58:27.473Z,20
2016-12-28T07:59:36.171Z,20
2016-12-28T08:00:44.867Z,24
2016-12-28T08:01:53.561Z,24
2016-12-28T08:03:02.256Z,28
2016-12-28T08:04:10.954Z,32
2016-12-28T08:05:19.651Z,32
2016-12-28T08:06:28.350Z,40
2016-12-28T08:07:37.046Z,44
2016-12-28T08:08:45.741Z,48
2016-12-28T08:09:54.438Z,56
2016-12-28T08:11:03.131Z,60
2016-12-28T08:12:11.870Z,64
2016-12-28T08:13:20.564Z,76
2016-12-28T08:14:29.268Z,80
2016-12-28T08:15:37.965Z,88
2016-12-28T08:16:46.655Z,96
2016-12-28T08:17:55.351Z,104
2016-12-28T08:19:04.044Z,108
2016-12-28T08:20:12.744Z,108
2016-12-28T08:21:21.469Z,108
2016-12-28T08:22:30.159Z,112
2016-12-28T08:23:38.857Z,120
2016-12-28T08:24:47.552Z,124
2016-12-28T08:25:56.245Z,132
2016-12-28T08:27:04.936Z,140
2016-12-28T08:28:13.635Z,148
2016-12-28T08:29:22.328Z,160
2016-12-28T08:30:31.023Z,168
2016-12-28T08:31:39.721Z,180
2016-12-28T08:32:48.417Z,188
2016-12-28T08:33:57.119Z,200
2016-12-28T08:35:05.813Z,212
2016-12-28T08:36:14.506Z,220
2016-12-28T08:37:23.204Z,232
2016-12-28T08:38:31.922Z,248
2016-12-28T08:39:40.617Z,256
2016-12-28T08:40:49.309Z,268
2016-12-28T08:41:58.004Z,280
2016-12-28T08:43:07.027Z,296
2016-12-28T08:44:15.730Z,312
2016-12-28T08:45:24.452Z,332
2016-12-28T08:46:33.145Z,344
2016-12-28T08:47:41.842Z,360
2016-12-28T08:48:50.536Z,376
2016-12-28T08:49:59.286Z,396
2016-12-28T08:51:07.976Z,416
2016-12-28T08:52:16.669Z,440
2016-12-28T08:53:25.362Z,464
2016-12-28T08:54:34.080Z,492
2016-12-28T08:55:42.770Z,516
2016-12-28T08:56:51.462Z,540
2016-12-28T08:58:00.156Z,568
2016-12-28T08:59:08.853Z,596
2016-12-28T09:00:17.547Z,624
2016-12-28T09:01:26.294Z,652
2016-12-28T09:02:34.988Z,676
2016-12-28T09:03:43.682Z,696
2016-12-28T09:04:52.380Z,716
2016-12-28T09:06:01.399Z,740
2016-12-28T09:07:10.099Z,764
2016-12-28T09:08:18.794Z,788
2016-12-28T09:09:27.486Z,812
2016-12-28T09:10:36.182Z,840
2016-12-28T09:11:44.873Z,872
2016-12-28T09:12:53.575Z,920
2016-12-28T09:14:02.271Z,956
2016-12-28T09:15:10.967Z,968
2016-12-28T09:16:19.657Z,984
2016-12-28T09:17:28.349Z,996
2016-12-28T09:18:37.057Z,1016
2016-12-28T09:19:45.810Z,1024
2016-12-28T09:20:54.506Z,1032
2016-12-28T09:22:03.204Z,1040
2016-12-28T09:23:11.903Z,1052
2016-12-28T09:24:20.624Z,1064
2016-12-28T09:25:29.316Z,1080
2016-12-28T09:26:38.010Z,1092
2016-12-28T09:27:46.702Z,1120
2016-12-28T09:28:55.392Z,1152
2016-12-28T09:30:04.087Z,1184
2016-12-28T09:31:12.782Z,1228
2016-12-28T09:32:21.477Z,1272
2016-12-28T09:33:30.204Z,1328
2016-12-28T09:34:38.921Z,1384
2016-12-28T09:35:47.615Z,1436
2016-12-28T09:36:56.307Z,1480
2016-12-28T09:38:05.002Z,1512
2016-12-28T09:39:13.696Z,1536
2016-12-28T09:40:22.417Z,1548
2016-12-28T09:41:31.144Z,1556
2016-12-28T09:42:39.837Z,1560
2016-12-28T09:43:48.534Z,1568
2016-12-28T09:44:57.226Z,1576
2016-12-28T09:46:05.920Z,1588
2016-12-28T09:47:14.618Z,1600
2016-12-28T09:48:23.310Z,1608
2016-12-28T09:49:32.002Z,1612
2016-12-28T09:50:40.698Z,1616
2016-12-28T09:51:49.402Z,1612
2016-12-28T09:52:58.411Z,1608
2016-12-28T09:54:07.101Z,1608
2016-12-28T09:55:15.794Z,1612
2016-12-28T09:56:24.489Z,1624
2016-12-28T09:57:33.185Z,1640
2016-12-28T09:58:41.882Z,1660
2016-12-28T09:59:50.578Z,1680
2016-12-28T10:00:59.271Z,1716
2016-12-28T10:02:07.971Z,1760
2016-12-28T10:03:16.672Z,1812
2016-12-28T10:04:25.370Z,1872
2016-12-28T10:05:34.096Z,1936
2016-12-28T10:06:42.817Z,2008
2016-12-28T10:07:51.509Z,2072
2016-12-28T10:09:00.210Z,2120
2016-12-28T10:10:08.910Z,2168
2016-12-28T10:11:17.611Z,2200
2016-12-28T10:12:26.309Z,2224
2016-12-28T10:13:35.000Z,2236
2016-12-28T10:14:43.699Z,2248
2016-12-28T10:15:52.397Z,2252
2016-12-28T10:17:01.090Z,2252
2016-12-28T10:18:10.111Z,2256
2016-12-28T10:19:18.810Z,2248
2016-12-28T10:20:27.507Z,2248
2016-12-28T10:21:36.197Z,2248
2016-12-28T10:22:44.897Z,2244
2016-12-28T10:23:53.603Z,2248
2016-12-28T10:25:02.302Z,2256
2016-12-28T10:26:10.995Z,2268
2016-12-28T10:27:19.688Z,2276
2016-12-28T10:28:28.384Z,2288
2016-12-28T10:29:37.082Z,2300
2016-12-28T10:30:45.780Z,2312
2016-12-28T10:31:54.482Z,2320
2016-12-28T10:33:03.201Z,2328
2016-12-28T10:34:11.893Z,2332
2016-12-28T10:35:20.901Z,2344
2016-12-28T10:36:29.595Z,2388
2016-12-28T10:37:38.298Z,2412
2016-12-28T10:38:47.116Z,2408
2016-12-28T10:39:55.811Z,2416
2016-12-28T10:41:04.506Z,2424
2016-12-28T10:42:13.200Z,2476
2016-12-28T10:43:21.894Z,2552
2016-12-28T10:44:30.639Z,2744
2016-12-28T10:45:39.647Z,2828
2016-12-28T10:46:48.344Z,2892
2016-12-28T10:47:57.042Z,2896
2016-12-28T10:49:05.735Z,2836
2016-12-28T10:50:14.459Z,2756
2016-12-28T10:51:23.154Z,2732
2016-12-28T10:52:31.846Z,2712
2016-12-28T10:53:40.539Z,2696
2016-12-28T10:54:49.233Z,2620
2016-12-28T10:55:57.927Z,2588
2016-12-28T10:57:06.636Z,2628
2016-12-28T10:58:15.362Z,2732
2016-12-28T10:59:24.054Z,2900
2016-12-28T11:00:32.755Z,3204
2016-12-28T11:01:41.455Z,3280
2016-12-28T11:02:50.152Z,3288
2016-12-28T11:03:58.846Z,3220
2016-12-28T11:05:07.548Z,3204
2016-12-28T11:06:16.245Z,3204
2016-12-28T11:07:24.978Z,3212
2016-12-28T11:08:33.671Z,3212
2016-12-28T11:09:42.707Z,3216
2016-12-28T11:10:51.407Z,3296
2016-12-28T11:12:00.127Z,3344
2016-12-28T11:13:08.830Z,3364
2016-12-28T11:14:17.854Z,3308
2016-12-28T11:15:26.552Z,3216
2016-12-28T11:16:35.247Z,3136
2016-12-28T11:17:43.961Z,3096
2016-12-28T11:18:52.654Z,3040
2016-12-28T11:20:01.351Z,2960
2016-12-28T11:21:10.056Z,2928
2016-12-28T11:22:18.759Z,2924
2016-12-28T11:23:27.455Z,2940
2016-12-28T11:24:36.157Z,2960
2016-12-28T11:25:44.885Z,2992
2016-12-28T11:26:53.580Z,3012
2016-12-28T11:28:02.274Z,3048
2016-12-28T11:29:10.982Z,3096
2016-12-28T11:30:19.679Z,3152
2016-12-28T11:31:28.371Z,3184
2016-12-28T11:32:37.069Z,3208
2016-12-28T11:33:45.767Z,3220
2016-12-28T11:34:54.779Z,3232
2016-12-28T11:36:03.478Z,3232
2016-12-28T11:37:12.169Z,3212
2016-12-28T11:38:20.865Z,3216
2016-12-28T11:39:29.575Z,3216
2016-12-28T11:40:38.277Z,3196
2016-12-28T11:41:46.983Z,3208
2016-12-28T11:42:55.678Z,3180
2016-12-28T11:44:04.370Z,3160
2016-12-28T11:45:13.070Z,3152
2016-12-28T11:46:21.769Z,3180
2016-12-28T11:47:30.495Z,3132
2016-12-28T11:48:39.190Z,3132
2016-12-28T11:49:48.215Z,3112
2016-12-28T11:50:56.914Z,3128
2016-12-28T11:52:05.607Z,3144
2016-12-28T11:53:14.303Z,3180
2016-12-28T11:54:22.995Z,3216
2016-12-28T11:55:31.694Z,3324
2016-12-28T11:56:40.384Z,3436
2016-12-28T11:57:49.083Z,3640
2016-12-28T11:58:57.774Z,3944
2016-12-28T12:00:06.472Z,3900
2016-12-28T12:01:15.167Z,3952
2016-12-28T12:02:23.880Z,3576
2016-12-28T12:03:32.578Z,3476
2016-12-28T12:04:41.297Z,3560
2016-12-28T12:05:49.989Z,3624
2016-12-28T12:06:58.678Z,4032
2016-12-28T12:08:07.371Z,3904
2016-12-28T12:09:16.074Z,3780
2016-12-28T12:10:24.774Z,3752
2016-12-28T12:11:33.467Z,3540
2016-12-28T12:12:42.185Z,3984
2016-12-28T12:13:50.883Z,4024
2016-12-28T12:14:59.582Z,3996
2016-12-28T12:16:08.279Z,3940
2016-12-28T12:17:16.974Z,3820
2016-12-28T12:18:25.669Z,3984
2016-12-28T12:19:34.369Z,4140
2016-12-28T12:20:43.070Z,4344
2016-12-28T12:21:51.769Z,4540
2016-12-28T12:23:00.492Z,4492
2016-12-28T12:24:09.214Z,3516
2016-12-28T12:25:17.953Z,3876
2016-12-28T12:26:26.648Z,3996
2016-12-28T12:27:35.343Z,3748
2016-12-28T12:28:44.043Z,3572
2016-12-28T12:29:52.752Z,3456
2016-12-28T12:31:01.479Z,3292
2016-12-28T12:32:10.176Z,3108
2016-12-28T12:33:18.876Z,3280
2016-12-28T12:34:27.576Z,3328
2016-12-28T12:35:36.272Z,2940
2016-12-28T12:36:44.968Z,2380
2016-12-28T12:37:53.660Z,2268
2016-12-28T12:39:02.361Z,2268
2016-12-28T12:40:11.088Z,2356
2016-12-28T12:41:19.788Z,2432
2016-12-28T12:42:28.485Z,2556
2016-12-28T12:43:37.182Z,2520
2016-12-28T12:44:45.881Z,2420
2016-12-28T12:45:54.577Z,2168
2016-12-28T12:47:03.272Z,2008
2016-12-28T12:48:11.993Z,1956
2016-12-28T12:49:20.692Z,1928
2016-12-28T12:50:29.396Z,1944
2016-12-28T12:51:38.088Z,1936
2016-12-28T12:52:46.807Z,1896
2016-12-28T12:53:55.506Z,1832
2016-12-28T12:55:04.203Z,1760
2016-12-28T12:56:12.903Z,1700
2016-12-28T12:57:21.618Z,1640
2016-12-28T12:58:30.317Z,1592
2016-12-28T12:59:39.011Z,1564
2016-12-28T13:00:47.709Z,1544
2016-12-28T13:01:56.406Z,1524
2016-12-28T13:03:05.131Z,1512
2016-12-28T13:04:13.873Z,1504
2016-12-28T13:05:22.571Z,1496
2016-12-28T13:06:31.270Z,1488
2016-12-28T13:07:39.977Z,1464
2016-12-28T13:08:48.677Z,1440
2016-12-28T13:09:57.372Z,1404
2016-12-28T13:11:06.099Z,1388
2016-12-28T13:12:14.793Z,1380
2016-12-28T13:13:23.485Z,1376
2016-12-28T13:14:32.190Z,1360
2016-12-28T13:15:40.890Z,1324
2016-12-28T13:16:49.587Z,1288
2016-12-28T13:17:58.288Z,1248
2016-12-28T13:19:06.986Z,1200
2016-12-28T13:20:15.678Z,1152
2016-12-28T13:21:24.373Z,1108
2016-12-28T13:22:33.070Z,1064
2016-12-28T13:23:41.767Z,1016
2016-12-28T13:24:50.461Z,972
2016-12-28T13:25:59.159Z,932
2016-12-28T13:27:07.861Z,896
2016-12-28T13:28:16.551Z,868
2016-12-28T13:29:25.251Z,836
2016-12-28T13:30:33.951Z,804
2016-12-28T13:31:42.652Z,776
2016-12-28T13:32:51.357Z,748
2016-12-28T13:34:00.051Z,720
2016-12-28T13:35:08.746Z,692
2016-12-28T13:36:17.443Z,668
2016-12-28T13:37:26.141Z,644
2016-12-28T13:38:34.833Z,620
2016-12-28T13:39:43.535Z,596
2016-12-28T13:40:52.629Z,576
2016-12-28T13:42:01.324Z,556
2016-12-28T13:43:10.029Z,540
2016-12-28T13:44:18.756Z,524
2016-12-28T13:45:27.455Z,508
2016-12-28T13:46:36.150Z,496
2016-12-28T13:47:44.850Z,480
2016-12-28T13:48:53.539Z,464
2016-12-28T13:50:02.243Z,448
2016-12-28T13:51:10.940Z,436
2016-12-28T13:52:19.634Z,420
2016-12-28T13:53:28.332Z,408
2016-12-28T13:54:37.023Z,392
2016-12-28T13:55:45.719Z,376
2016-12-28T13:56:54.415Z,360
2016-12-28T13:58:03.119Z,344
2016-12-28T13:59:11.814Z,332
2016-12-28T14:00:20.505Z,316
2016-12-28T14:01:29.198Z,300
2016-12-28T14:02:37.890Z,292
2016-12-28T14:03:46.580Z,280
2016-12-28T14:04:55.273Z,264
2016-12-28T14:06:03.967Z,256
2016-12-28T14:07:12.661Z,244
2016-12-28T14:08:21.360Z,240
2016-12-28T14:09:30.053Z,236
2016-12-28T14:10:38.754Z,236
2016-12-28T14:11:47.466Z,240
2016-12-28T14:12:56.158Z,240
2016-12-28T14:14:04.886Z,244
2016-12-28T14:15:13.582Z,244
2016-12-28T14:16:22.280Z,248
2016-12-28T14:17:30.973Z,240
2016-12-28T14:18:39.664Z,236
2016-12-28T14:19:48.356Z,228
2016-12-28T14:20:57.048Z,216
2016-12-28T14:22:05.745Z,204
2016-12-28T14:23:14.438Z,192
2016-12-28T14:24:23.132Z,180
2016-12-28T14:25:31.827Z,168
2016-12-28T14:26:40.517Z,152
2016-12-28T14:27:49.212Z,140
2016-12-28T14:28:57.909Z,124
2016-12-28T14:30:06.606Z,108
2016-12-28T14:31:15.303Z,96
2016-12-28T14:32:23.999Z,80
2016-12-28T14:33:32.697Z,68
2016-12-28T14:34:41.390Z,56
2016-12-28T14:35:50.088Z,52
2016-12-28T14:36:58.782Z,40
2016-12-28T14:38:07.472Z,36
2016-12-28T14:39:16.163Z,32
2016-12-28T14:40:24.871Z,28
2016-12-28T14:41:33.576Z,24
2016-12-28T14:42:42.265Z,20
2016-12-28T14:43:50.959Z,20
2016-12-28T14:44:59.653Z,16
2016-12-28T14:46:08.349Z,12
2016-12-28T14:47:17.043Z,12
2016-12-28T14:48:25.752Z,12
2016-12-28T14:49:34.445Z,8
2016-12-28T14:50:43.141Z,8
2016-12-28T14:51:51.835Z,4
2016-12-28T14:53:00.527Z,4
2016-12-28T14:54:09.223Z,8
2016-12-28T14:55:17.920Z,8
2016-12-28T14:56:26.608Z,8
2016-12-28T14:57:35.303Z,4
2016-12-28T14:58:43.994Z,4
2016-12-28T14:59:52.686Z,4
2016-12-28T15:01:01.384Z,0
2016-12-28T15:02:10.079Z,4
2016-12-28T15:03:18.769Z,0
2016-12-28T15:04:27.462Z,4
2016-12-28T15:05:36.155Z,0
2016-12-28T15:06:44.862Z,4
2016-12-28T15:07:53.578Z,0
2016-12-28T15:09:02.269Z,0
2016-12-28T15:10:10.960Z,0
2016-12-28T15:11:19.652Z,4
2016-12-28T15:12:28.347Z,0
2016-12-28T15:13:37.036Z,0
2016-12-28T15:14:45.727Z,0
2016-12-28T15:15:54.421Z,0
2016-12-28T15:17:03.117Z,0
2016-12-28T15:18:11.818Z,0
2016-12-28T15:19:20.518Z,0
2016-12-28T15:20:29.208Z,0
2016-12-28T15:21:37.904Z,0
2016-12-28T15:22:46.597Z,0
2016-12-28T15:23:55.291Z,0
2016-12-28T15:25:03.980Z,0
2016-12-28T15:26:12.680Z,0
2016-12-28T15:27:21.374Z,0
2016-12-28T15:28:30.067Z,0
2016-12-28T15:29:38.760Z,0
2016-12-28T15:30:47.456Z,0
2016-12-28T15:31:56.150Z,0
2016-12-28T15:33:04.848Z,0
2016-12-28T15:34:13.573Z,0
2016-12-28T15:35:22.290Z,0
2016-12-28T15:36:30.984Z,0
2016-12-28T15:37:39.678Z,0
2016-12-28T15:38:48.366Z,0
2016-12-28T15:39:57.061Z,0
2016-12-28T15:41:05.752Z,0
2016-12-28T15:42:14.452Z,0
2016-12-28T15:43:23.142Z,0
2016-12-28T15:44:31.839Z,0
2016-12-28T15:45:40.532Z,0
2016-12-28T15:46:49.224Z,0
2016-12-28T15:47:57.915Z,0
2016-12-28T15:49:06.612Z,0
2016-12-28T15:50:15.300Z,0
2016-12-28T15:51:23.992Z,0
2016-12-28T15:52:32.690Z,0
2016-12-28T15:53:41.384Z,0
2016-12-28T15:54:50.077Z,0
2016-12-28T15:55:58.770Z,0
2016-12-28T15:57:07.463Z,0
2016-12-28T15:58:16.151Z,0
2016-12-28T15:59:24.843Z,0
2016-12-28T16:00:33.535Z,0
2016-12-28T16:01:42.259Z,0
2016-12-28T16:02:50.960Z,0
2016-12-28T16:03:59.648Z,0
2016-12-28T16:05:08.346Z,0
2016-12-28T16:06:17.040Z,0
2016-12-28T16:07:25.732Z,0
2016-12-28T16:08:34.426Z,0
2016-12-28T16:09:43.129Z,0
2016-12-28T16:10:51.819Z,0
2016-12-28T16:12:00.509Z,0
2016-12-28T16:13:09.208Z,0
2016-12-28T16:14:17.927Z,0
2016-12-28T16:15:26.627Z,0
2016-12-28T16:16:35.324Z,0
2016-12-28T16:17:44.015Z,0